createdAt,value
2018-11-07T00:00:53.453Z,80.80
2018-11-07T00:03:22.885Z,80.90
2018-11-07T00:05:52.288Z,81.10
2018-11-07T00:08:21.728Z,81.10
2018-11-07T00:10:50.881Z,81.30
2018-11-07T00:13:20.590Z,81.60
2018-11-07T00:15:50.101Z,81.70
2018-11-07T00:18:19.647Z,81.70
2018-11-07T00:20:49.109Z,81.80
2018-11-07T00:23:18.636Z,81.80
2018-11-07T00:25:47.923Z,81.90
2018-11-07T00:28:17.346Z,82.00
2018-11-07T00:30:46.632Z,82.10
2018-11-07T00:33:15.921Z,82.20
2018-11-07T00:35:45.510Z,82.20
2018-11-07T00:38:15.051Z,82.30
2018-11-07T00:40:44.430Z,82.40
2018-11-07T00:43:13.731Z,82.50
2018-11-07T00:45:43.250Z,82.60
2018-11-07T00:48:12.784Z,82.60
2018-11-07T00:50:42.043Z,82.70
2018-11-07T00:53:11.193Z,82.60
2018-11-07T00:55:40.542Z,82.50
2018-11-07T00:58:10.065Z,82.60
2018-11-07T01:00:39.566Z,82.80
2018-11-07T01:03:08.783Z,82.90
2018-11-07T01:05:38.024Z,83.00
2018-11-07T01:08:07.460Z,83.30
2018-11-07T01:10:36.715Z,83.30
2018-11-07T01:13:06.088Z,83.40
2018-11-07T01:15:35.472Z,83.40
2018-11-07T01:18:04.757Z,83.50
2018-11-07T01:20:34.144Z,83.60
2018-11-07T01:23:03.360Z,83.70
2018-11-07T01:25:32.573Z,83.80
2018-11-07T01:28:02.226Z,83.70
2018-11-07T01:30:31.612Z,83.70
2018-11-07T01:33:01.291Z,83.90
2018-11-07T01:35:30.589Z,83.90
2018-11-07T01:37:59.909Z,83.90
2018-11-07T01:40:29.414Z,84.70
2018-11-07T01:42:58.684Z,84.10
2018-11-07T01:45:28.011Z,83.90
2018-11-07T01:47:57.291Z,83.90
2018-11-07T01:50:26.697Z,83.80
2018-11-07T01:52:56.244Z,83.70
2018-11-07T01:55:28.045Z,83.60
2018-11-07T01:57:57.375Z,83.50
2018-11-07T02:00:26.912Z,83.60
2018-11-07T02:02:56.045Z,83.60
2018-11-07T02:05:25.351Z,83.60
2018-11-07T02:07:54.787Z,83.60
2018-11-07T02:10:24.176Z,83.60
2018-11-07T02:12:53.491Z,83.70
2018-11-07T02:15:22.794Z,83.80
2018-11-07T02:17:52.166Z,83.50
2018-11-07T02:20:21.574Z,83.60
2018-11-07T02:22:51.108Z,83.60
2018-11-07T02:25:20.504Z,83.60
2018-11-07T02:27:49.895Z,83.80
2018-11-07T02:30:19.541Z,83.90
2018-11-07T02:32:48.804Z,83.70
2018-11-07T02:35:18.217Z,83.80
2018-11-07T02:37:47.733Z,83.80
2018-11-07T02:40:17.329Z,83.80
2018-11-07T02:42:46.939Z,84.80
2018-11-07T02:45:16.565Z,84.10
2018-11-07T02:47:46.067Z,84.00
2018-11-07T02:50:15.448Z,84.00
2018-11-07T02:52:44.743Z,84.00
2018-11-07T02:55:14.442Z,84.20
2018-11-07T02:57:44.092Z,84.10
2018-11-07T03:00:14.145Z,84.20
2018-11-07T03:02:43.584Z,84.40
2018-11-07T03:05:13.008Z,84.30
2018-11-07T03:07:43.001Z,84.40
2018-11-07T03:10:13.477Z,84.50
2018-11-07T03:12:43.076Z,84.70
2018-11-07T03:15:12.714Z,84.50
2018-11-07T03:17:42.073Z,84.50
2018-11-07T03:20:12.643Z,84.50
2018-11-07T03:22:42.240Z,84.50
2018-11-07T03:25:11.405Z,84.70
2018-11-07T03:27:40.900Z,85.00
2018-11-07T03:30:10.707Z,85.20
2018-11-07T03:32:40.189Z,85.20
2018-11-07T03:35:26.650Z,85.50
2018-11-07T03:37:56.752Z,85.70
2018-11-07T03:40:26.473Z,85.70
2018-11-07T03:42:55.789Z,85.60
2018-11-07T03:45:42.170Z,85.70
2018-11-07T03:48:11.694Z,85.70
2018-11-07T03:50:44.093Z,85.70
2018-11-07T03:53:13.779Z,85.60
2018-11-07T03:55:42.962Z,85.70
2018-11-07T03:58:12.671Z,85.70
2018-11-07T04:00:42.206Z,85.50
2018-11-07T04:03:11.795Z,85.60
2018-11-07T04:05:43.443Z,85.60
2018-11-07T04:08:12.816Z,86.00
2018-11-07T04:10:42.159Z,86.20
2018-11-07T04:13:11.629Z,86.40
2018-11-07T04:15:40.949Z,86.20
2018-11-07T04:18:10.463Z,86.30
2018-11-07T04:20:39.940Z,86.50
2018-11-07T04:23:11.891Z,86.50
2018-11-07T04:25:43.625Z,86.50
2018-11-07T04:28:15.303Z,86.50
2018-11-07T04:30:44.626Z,86.70
2018-11-07T04:33:13.838Z,86.80
2018-11-07T04:35:43.211Z,86.90
2018-11-07T04:38:12.636Z,86.90
2018-11-07T04:40:42.043Z,87.00
2018-11-07T04:43:11.452Z,86.90
2018-11-07T04:45:40.938Z,87.00
2018-11-07T04:48:10.572Z,86.80
2018-11-07T04:50:39.933Z,86.90
2018-11-07T04:53:09.082Z,86.80
2018-11-07T04:55:38.993Z,86.90
2018-11-07T04:58:08.124Z,86.90
2018-11-07T05:00:37.330Z,86.90
2018-11-07T05:03:07.114Z,87.10
2018-11-07T05:05:36.673Z,87.30
2018-11-07T05:08:05.868Z,87.40
2018-11-07T05:10:35.191Z,87.50
2018-11-07T05:13:04.606Z,87.60
2018-11-07T05:15:33.869Z,87.80
2018-11-07T05:18:03.724Z,87.60
2018-11-07T05:20:33.190Z,87.60
2018-11-07T05:23:02.619Z,87.60
2018-11-07T05:25:32.092Z,87.60
2018-11-07T05:28:01.985Z,87.80
2018-11-07T05:30:31.311Z,87.80
2018-11-07T05:33:00.569Z,87.70
2018-11-07T05:35:29.735Z,88.20
2018-11-07T05:37:58.933Z,88.30
2018-11-07T05:40:28.475Z,88.50
2018-11-07T05:42:57.934Z,88.50
2018-11-07T05:45:27.353Z,88.50
2018-11-07T05:47:56.790Z,88.50
2018-11-07T05:50:26.234Z,88.60
2018-11-07T05:52:55.801Z,88.80
2018-11-07T05:55:25.164Z,88.80
2018-11-07T05:57:54.287Z,89.00
2018-11-07T06:00:23.572Z,89.00
2018-11-07T06:02:52.878Z,89.00
2018-11-07T06:05:22.246Z,89.20
2018-11-07T06:07:51.794Z,90.00
2018-11-07T06:10:21.385Z,89.00
2018-11-07T06:12:50.678Z,88.70
2018-11-07T06:15:20.225Z,88.60
2018-11-07T06:17:49.506Z,88.40
2018-11-07T06:20:18.861Z,88.30
2018-11-07T06:22:48.268Z,88.00
2018-11-07T06:25:17.460Z,87.80
2018-11-07T06:27:46.884Z,87.60
2018-11-07T06:30:16.537Z,87.00
2018-11-07T06:32:46.063Z,86.50
2018-11-07T06:35:15.388Z,86.00
2018-11-07T06:37:44.925Z,85.60
2018-11-07T06:40:14.445Z,85.30
2018-11-07T06:42:43.548Z,85.30
2018-11-07T06:45:12.927Z,85.40
2018-11-07T06:47:42.643Z,85.40
2018-11-07T06:50:14.398Z,85.00
2018-11-07T06:52:44.490Z,84.30
2018-11-07T06:55:13.750Z,83.90
2018-11-07T06:57:43.199Z,83.60
2018-11-07T07:00:14.997Z,83.10
2018-11-07T07:02:45.326Z,82.80
2018-11-07T07:05:14.906Z,82.70
2018-11-07T07:07:44.060Z,82.50
2018-11-07T07:10:17.305Z,82.50
2018-11-07T07:12:46.598Z,82.90
2018-11-07T07:15:16.930Z,83.20
2018-11-07T07:17:46.302Z,83.50
2018-11-07T07:20:17.353Z,83.60
2018-11-07T07:22:47.303Z,83.80
2018-11-07T07:25:16.728Z,83.70
2018-11-07T07:27:46.608Z,84.10
2018-11-07T07:30:20.493Z,84.20
2018-11-07T07:32:50.472Z,84.10
2018-11-07T07:35:19.739Z,84.20
2018-11-07T07:37:49.247Z,84.20
2018-11-07T07:40:18.669Z,83.90
2018-11-07T07:42:48.282Z,83.80
2018-11-07T07:45:18.571Z,83.60
2018-11-07T07:47:47.915Z,83.50
2018-11-07T07:50:20.325Z,83.00
2018-11-07T07:52:49.658Z,82.80
2018-11-07T07:55:19.061Z,82.60
2018-11-07T07:57:48.544Z,82.60
2018-11-07T08:00:21.316Z,82.40
2018-11-07T08:02:54.084Z,82.00
2018-11-07T08:05:23.352Z,82.30
2018-11-07T08:07:52.718Z,82.10
2018-11-07T08:10:22.849Z,82.10
2018-11-07T08:12:52.468Z,82.30
2018-11-07T08:15:21.760Z,82.30
2018-11-07T08:17:51.040Z,82.10
2018-11-07T08:20:20.846Z,82.10
2018-11-07T08:22:50.432Z,81.90
2018-11-07T08:25:19.905Z,81.60
2018-11-07T08:27:49.468Z,81.50
2018-11-07T08:30:20.324Z,81.00
2018-11-07T08:32:50.250Z,80.60
2018-11-07T08:35:19.644Z,80.40
2018-11-07T08:37:48.941Z,79.90
2018-11-07T08:40:19.656Z,79.30
2018-11-07T08:42:49.182Z,78.50
2018-11-07T08:45:18.734Z,77.20
2018-11-07T08:47:48.606Z,77.20
2018-11-07T08:50:19.287Z,76.60
2018-11-07T08:52:48.880Z,75.00
2018-11-07T08:55:22.266Z,72.90
2018-11-07T08:57:52.056Z,70.20
2018-11-07T09:00:22.461Z,68.30
2018-11-07T09:02:52.120Z,65.20
2018-11-07T09:05:22.305Z,62.40
2018-11-07T09:07:51.540Z,60.20
2018-11-07T09:10:22.246Z,58.80
2018-11-07T09:12:51.537Z,56.40
2018-11-07T09:15:22.265Z,54.70
2018-11-07T09:17:51.455Z,54.60
2018-11-07T09:20:22.097Z,55.80
2018-11-07T09:22:51.397Z,56.50
2018-11-07T09:25:20.647Z,57.20
2018-11-07T09:27:50.090Z,57.90
2018-11-07T09:30:22.939Z,58.10
2018-11-07T09:32:52.600Z,55.10
2018-11-07T09:35:22.406Z,48.80
2018-11-07T09:37:51.592Z,43.40
2018-11-07T09:40:21.830Z,39.50
2018-11-07T09:42:51.363Z,36.90
2018-11-07T09:45:21.982Z,35.80
2018-11-07T09:47:51.743Z,34.90
2018-11-07T09:50:21.060Z,35.90
2018-11-07T09:52:50.269Z,39.40
2018-11-07T09:55:20.827Z,40.20
2018-11-07T09:57:50.080Z,37.80
2018-11-07T10:00:22.911Z,35.50
2018-11-07T10:02:52.185Z,32.90
2018-11-07T10:05:22.050Z,32.30
2018-11-07T10:07:51.535Z,33.00
2018-11-07T10:10:21.852Z,32.10
2018-11-07T10:12:51.340Z,30.30
2018-11-07T10:15:21.201Z,28.60
2018-11-07T10:17:50.675Z,28.20
2018-11-07T10:20:23.983Z,28.90
2018-11-07T10:22:53.577Z,28.40
2018-11-07T10:25:22.861Z,28.80
2018-11-07T10:27:52.374Z,29.40
2018-11-07T10:30:22.219Z,30.00
2018-11-07T10:32:52.008Z,31.30
2018-11-07T10:35:21.547Z,31.90
2018-11-07T10:37:51.162Z,34.40
2018-11-07T10:40:22.072Z,33.90
2018-11-07T10:42:51.260Z,31.20
2018-11-07T10:45:20.772Z,28.90
2018-11-07T10:47:50.744Z,27.50
2018-11-07T10:50:20.905Z,27.80
2018-11-07T10:52:50.822Z,27.90
2018-11-07T10:55:20.191Z,27.80
2018-11-07T10:57:49.624Z,29.30
2018-11-07T11:00:36.600Z,32.70
2018-11-07T11:03:23.523Z,35.60
2018-11-07T11:05:52.892Z,36.30
2018-11-07T11:08:22.265Z,37.70
2018-11-07T11:10:51.703Z,38.30
2018-11-07T11:13:20.964Z,36.00
2018-11-07T11:15:50.267Z,35.30
2018-11-07T11:18:19.565Z,34.40
2018-11-07T11:20:48.796Z,34.90
2018-11-07T11:23:18.376Z,33.50
2018-11-07T11:25:47.723Z,32.40
2018-11-07T11:28:17.098Z,30.30
2018-11-07T11:30:46.277Z,30.10
2018-11-07T11:33:15.658Z,30.70
2018-11-07T11:35:45.316Z,30.00
2018-11-07T11:38:14.668Z,29.80
2018-11-07T11:40:44.181Z,30.40
2018-11-07T11:43:13.498Z,31.20
2018-11-07T11:45:43.209Z,32.20
2018-11-07T11:48:12.403Z,33.50
2018-11-07T11:50:42.115Z,33.60
2018-11-07T11:53:11.503Z,34.40
2018-11-07T11:55:40.919Z,35.60
2018-11-07T11:58:10.342Z,35.60
2018-11-07T12:00:39.704Z,34.90
2018-11-07T12:03:09.113Z,34.90
2018-11-07T12:05:39.786Z,34.30
2018-11-07T12:08:09.278Z,33.60
2018-11-07T12:10:38.673Z,32.80
2018-11-07T12:13:08.030Z,33.30
2018-11-07T12:15:37.375Z,34.00
2018-11-07T12:18:06.982Z,33.90
2018-11-07T12:20:36.708Z,32.30
2018-11-07T12:23:06.082Z,34.10
2018-11-07T12:25:35.483Z,35.40
2018-11-07T12:28:04.668Z,37.30
2018-11-07T12:30:34.101Z,38.00
2018-11-07T12:33:03.392Z,37.50
2018-11-07T12:35:32.715Z,38.70
2018-11-07T12:38:01.854Z,40.50
2018-11-07T12:40:31.205Z,40.80
2018-11-07T12:43:00.587Z,41.00
2018-11-07T12:45:29.836Z,41.20
2018-11-07T12:47:59.563Z,41.40
2018-11-07T12:50:29.088Z,43.10
2018-11-07T12:52:58.925Z,44.80
2018-11-07T12:55:28.239Z,44.00
2018-11-07T12:57:57.605Z,43.50
2018-11-07T13:00:27.760Z,45.40
2018-11-07T13:02:57.195Z,47.10
2018-11-07T13:05:27.185Z,48.80
2018-11-07T13:07:57.506Z,50.20
2018-11-07T13:10:27.117Z,51.10
2018-11-07T13:12:56.285Z,51.70
2018-11-07T13:15:25.741Z,52.40
2018-11-07T13:17:55.195Z,53.30
2018-11-07T13:20:26.500Z,53.50
2018-11-07T13:22:56.507Z,54.60
2018-11-07T13:25:26.693Z,55.70
2018-11-07T13:27:56.259Z,56.30
2018-11-07T13:30:25.361Z,56.70
2018-11-07T13:32:54.719Z,57.80
2018-11-07T13:35:24.085Z,58.20
2018-11-07T13:37:54.040Z,58.70
2018-11-07T13:40:24.468Z,58.60
2018-11-07T13:42:53.898Z,59.30
2018-11-07T13:45:24.004Z,59.60
2018-11-07T13:47:54.359Z,59.60
2018-11-07T13:50:23.775Z,59.60
2018-11-07T13:52:53.224Z,60.10
2018-11-07T13:55:22.734Z,60.20
2018-11-07T13:57:52.025Z,60.50
2018-11-07T14:00:22.508Z,61.10
2018-11-07T14:02:52.783Z,61.80
2018-11-07T14:05:22.255Z,62.50
2018-11-07T14:07:51.645Z,63.00
2018-11-07T14:10:22.117Z,63.60
2018-11-07T14:12:51.627Z,64.00
2018-11-07T14:15:20.750Z,64.30
2018-11-07T14:17:50.321Z,65.00
2018-11-07T14:20:19.690Z,65.30
2018-11-07T14:22:49.135Z,65.70
2018-11-07T14:25:18.326Z,66.10
2018-11-07T14:27:47.854Z,66.50
2018-11-07T14:30:18.788Z,66.80
2018-11-07T14:32:58.785Z,67.20
2018-11-07T14:35:28.064Z,67.80
2018-11-07T14:37:58.107Z,68.60
2018-11-07T14:40:27.447Z,68.80
2018-11-07T14:42:56.956Z,69.00
2018-11-07T14:45:26.254Z,69.20
2018-11-07T14:47:55.661Z,69.10
2018-11-07T14:50:25.045Z,69.20
2018-11-07T14:52:54.222Z,69.30
2018-11-07T14:55:23.760Z,69.30
2018-11-07T14:57:52.902Z,69.50
2018-11-07T15:00:22.262Z,69.70
2018-11-07T15:02:51.790Z,70.30
2018-11-07T15:05:20.867Z,70.30
2018-11-07T15:07:50.269Z,70.40
2018-11-07T15:10:19.426Z,70.40
2018-11-07T15:12:48.974Z,71.10
2018-11-07T15:15:19.616Z,71.50
2018-11-07T15:17:48.821Z,71.80
2018-11-07T15:20:18.823Z,72.00
2018-11-07T15:22:48.225Z,72.30
2018-11-07T15:25:18.070Z,72.50
2018-11-07T15:27:48.190Z,72.70
2018-11-07T15:30:18.184Z,72.80
2018-11-07T15:32:47.734Z,73.40
2018-11-07T15:35:17.172Z,73.30
2018-11-07T15:37:46.573Z,73.70
2018-11-07T15:40:17.397Z,73.80
2018-11-07T15:42:47.234Z,74.00
2018-11-07T15:45:17.870Z,74.20
2018-11-07T15:47:47.502Z,74.50
2018-11-07T15:50:34.640Z,74.80
2018-11-07T15:53:04.120Z,75.00
2018-11-07T15:55:33.672Z,75.50
2018-11-07T15:58:03.005Z,75.40
2018-11-07T16:00:32.499Z,75.40
2018-11-07T16:03:02.029Z,75.60
2018-11-07T16:05:31.432Z,75.60
2018-11-07T16:08:01.042Z,75.60
2018-11-07T16:10:30.826Z,75.70
2018-11-07T16:13:00.334Z,75.80
2018-11-07T16:15:29.626Z,75.80
2018-11-07T16:17:59.153Z,75.90
2018-11-07T16:20:28.490Z,76.10
2018-11-07T16:22:57.973Z,76.10
2018-11-07T16:25:27.370Z,76.30
2018-11-07T16:27:56.771Z,76.30
2018-11-07T16:30:26.276Z,76.30
2018-11-07T16:32:55.828Z,76.50
2018-11-07T16:35:25.388Z,76.60
2018-11-07T16:37:54.611Z,76.60
2018-11-07T16:40:24.277Z,76.80
2018-11-07T16:42:53.709Z,76.90
2018-11-07T16:45:23.027Z,76.90
2018-11-07T16:47:52.427Z,77.00
2018-11-07T16:50:22.373Z,77.10
2018-11-07T16:52:51.582Z,77.20
2018-11-07T16:55:20.899Z,77.50
2018-11-07T16:57:50.038Z,77.50
2018-11-07T17:00:20.722Z,77.50
2018-11-07T17:02:50.622Z,77.70
2018-11-07T17:05:20.505Z,78.00
2018-11-07T17:07:49.939Z,78.10
2018-11-07T17:10:19.193Z,78.10
2018-11-07T17:12:48.589Z,78.30
2018-11-07T17:15:18.045Z,78.30
2018-11-07T17:17:47.703Z,78.50
2018-11-07T17:20:17.330Z,78.70
2018-11-07T17:22:46.637Z,78.70
2018-11-07T17:25:17.751Z,78.80
2018-11-07T17:27:47.267Z,78.70
2018-11-07T17:30:17.707Z,79.00
2018-11-07T17:32:47.120Z,79.00
2018-11-07T17:35:17.821Z,79.20
2018-11-07T17:37:47.559Z,79.20
2018-11-07T17:40:19.320Z,79.30
2018-11-07T17:42:48.816Z,79.40
2018-11-07T17:45:19.309Z,79.50
2018-11-07T17:47:49.685Z,79.40
2018-11-07T17:50:20.079Z,79.90
2018-11-07T17:52:50.004Z,79.50
2018-11-07T17:55:19.823Z,79.20
2018-11-07T17:57:49.383Z,79.20
2018-11-07T18:00:20.090Z,79.20
2018-11-07T18:02:49.685Z,79.40
2018-11-07T18:05:18.817Z,79.50
2018-11-07T18:07:48.666Z,79.80
2018-11-07T18:10:18.803Z,80.00
2018-11-07T18:12:48.201Z,80.10
2018-11-07T18:15:17.520Z,80.40
2018-11-07T18:17:47.014Z,80.80
2018-11-07T18:20:17.425Z,81.10
2018-11-07T18:22:46.961Z,81.40
2018-11-07T18:25:17.251Z,81.50
2018-11-07T18:27:46.764Z,81.80
2018-11-07T18:30:17.230Z,82.00
2018-11-07T18:32:47.161Z,82.20
2018-11-07T18:35:18.043Z,82.50
2018-11-07T18:37:47.693Z,82.60
2018-11-07T18:40:18.234Z,82.90
2018-11-07T18:42:47.611Z,82.90
2018-11-07T18:45:17.041Z,83.10
2018-11-07T18:47:47.199Z,83.80
2018-11-07T18:50:20.357Z,83.50
2018-11-07T18:52:49.375Z,83.60
2018-11-07T18:55:19.014Z,83.80
2018-11-07T18:57:48.485Z,84.10
2018-11-07T19:00:21.359Z,84.20
2018-11-07T19:02:51.098Z,84.40
2018-11-07T19:05:20.508Z,84.60
2018-11-07T19:07:50.074Z,84.70
2018-11-07T19:10:20.848Z,84.50
2018-11-07T19:12:50.767Z,84.60
2018-11-07T19:15:20.249Z,84.60
2018-11-07T19:17:50.604Z,84.70
2018-11-07T19:20:20.977Z,85.00
2018-11-07T19:22:50.359Z,86.00
2018-11-07T19:25:20.820Z,85.20
2018-11-07T19:27:50.158Z,85.30
2018-11-07T19:30:23.205Z,85.30
2018-11-07T19:32:53.484Z,85.50
2018-11-07T19:35:23.323Z,85.50
2018-11-07T19:37:53.017Z,85.60
2018-11-07T19:40:26.480Z,85.50
2018-11-07T19:42:55.934Z,85.60
2018-11-07T19:45:25.217Z,86.40
2018-11-07T19:47:54.493Z,85.50
2018-11-07T19:50:26.258Z,85.40
2018-11-07T19:52:55.868Z,85.30
2018-11-07T19:55:25.775Z,85.20
2018-11-07T19:57:56.951Z,85.30
2018-11-07T20:00:26.372Z,85.40
2018-11-07T20:02:55.757Z,85.30
2018-11-07T20:05:25.140Z,85.40
2018-11-07T20:07:54.856Z,85.40
2018-11-07T20:10:24.092Z,85.30
2018-11-07T20:12:53.442Z,85.40
2018-11-07T20:15:23.159Z,85.30
2018-11-07T20:17:52.786Z,85.30
2018-11-07T20:20:22.206Z,85.20
2018-11-07T20:22:51.657Z,85.40
2018-11-07T20:25:20.762Z,85.50
2018-11-07T20:27:50.164Z,85.60
2018-11-07T20:30:20.619Z,85.70
2018-11-07T20:32:50.115Z,85.90
2018-11-07T20:35:20.763Z,85.80
2018-11-07T20:37:50.092Z,85.70
2018-11-07T20:40:20.616Z,85.60
2018-11-07T20:42:49.997Z,85.40
2018-11-07T20:45:19.937Z,86.50
2018-11-07T20:47:49.389Z,85.60
2018-11-07T20:50:20.322Z,85.70
2018-11-07T20:52:50.059Z,85.80
2018-11-07T20:55:19.787Z,85.70
2018-11-07T20:57:49.091Z,85.10
2018-11-07T21:00:22.862Z,85.10
2018-11-07T21:02:52.367Z,85.70
2018-11-07T21:05:21.766Z,85.00
2018-11-07T21:07:51.288Z,85.70
2018-11-07T21:10:22.043Z,85.00
2018-11-07T21:12:52.006Z,84.90
2018-11-07T21:15:22.072Z,84.80
2018-11-07T21:17:51.453Z,84.70
2018-11-07T21:20:21.008Z,85.00
2018-11-07T21:22:50.789Z,85.00
2018-11-07T21:25:20.266Z,85.60
2018-11-07T21:27:49.674Z,85.70
2018-11-07T21:30:19.206Z,85.60
2018-11-07T21:32:48.483Z,85.80
2018-11-07T21:35:18.012Z,85.90
2018-11-07T21:37:47.416Z,85.90
2018-11-07T21:40:17.500Z,86.00
2018-11-07T21:42:47.679Z,86.10
2018-11-07T21:45:17.200Z,86.30
2018-11-07T21:47:46.714Z,86.10
2018-11-07T21:50:17.170Z,87.00
2018-11-07T21:52:46.789Z,86.50
2018-11-07T21:55:16.274Z,86.30
2018-11-07T21:57:45.585Z,86.40
2018-11-07T22:00:18.915Z,86.50
2018-11-07T22:02:48.501Z,86.60
2018-11-07T22:05:20.219Z,86.60
2018-11-07T22:07:49.874Z,87.40
2018-11-07T22:10:19.736Z,86.80
2018-11-07T22:12:49.267Z,86.90
2018-11-07T22:15:18.684Z,86.90
2018-11-07T22:17:48.074Z,87.00
2018-11-07T22:20:21.667Z,87.10
2018-11-07T22:22:51.018Z,87.10
2018-11-07T22:25:20.509Z,87.30
2018-11-07T22:27:50.433Z,87.30
2018-11-07T22:30:19.835Z,87.40
2018-11-07T22:32:49.260Z,87.50
2018-11-07T22:35:19.020Z,87.50
2018-11-07T22:37:48.557Z,87.50
2018-11-07T22:40:19.283Z,87.40
2018-11-07T22:42:48.613Z,87.50
2018-11-07T22:45:18.000Z,87.60
2018-11-07T22:47:47.577Z,87.90
2018-11-07T22:50:17.410Z,88.20
2018-11-07T22:52:47.045Z,88.20
2018-11-07T22:55:16.760Z,88.30
2018-11-07T22:57:46.119Z,88.40
2018-11-07T23:00:35.848Z,88.50
2018-11-07T23:03:05.553Z,88.50
2018-11-07T23:05:35.185Z,88.80
2018-11-07T23:08:04.722Z,88.80
2018-11-07T23:10:33.925Z,88.80
2018-11-07T23:13:03.458Z,88.90
2018-11-07T23:15:50.852Z,88.90
2018-11-07T23:18:20.766Z,89.00
2018-11-07T23:20:50.290Z,89.00
2018-11-07T23:23:20.213Z,89.10
2018-11-07T23:25:49.667Z,89.20
2018-11-07T23:28:21.792Z,89.20
2018-11-07T23:30:53.233Z,90.00
2018-11-07T23:33:22.880Z,89.40
2018-11-07T23:35:52.094Z,89.50
2018-11-07T23:38:21.415Z,89.60
2018-11-07T23:40:50.693Z,89.60
2018-11-07T23:43:19.999Z,89.60
2018-11-07T23:45:49.311Z,89.70
2018-11-07T23:48:18.689Z,89.60
2018-11-07T23:50:48.116Z,89.70
2018-11-07T23:53:17.849Z,90.20
2018-11-07T23:55:47.129Z,89.80
2018-11-07T23:58:16.527Z,89.70
